Time;durP1;ratioP1;P1;durP2;ratioP2;P2;SDS_P1;SDS_P2;PMS_P1;PMS_P2;Temp;Humidity;BMP_temperature;BMP_pressure;BME280_temperature;BME280_humidity;BME280_pressure;Samples;Min_cycle;Max_cycle;Signal;HPM_P1;HPM_P2
2022/12/26 00:01:38;;;;;;;4.65;1.83;;;11.10;99.90;;;;;;5112808;28;20034;-73
2022/12/26 00:04:04;;;;;;;3.78;2.00;;;11.10;99.90;;;;;;5112096;28;20024;-73
2022/12/26 00:06:30;;;;;;;2.13;1.77;;;11.10;99.90;;;;;;5112736;28;20028;-73
2022/12/26 00:08:57;;;;;;;4.45;2.25;;;11.10;99.90;;;;;;5112427;28;20032;-73
2022/12/26 00:11:23;;;;;;;4.35;2.10;;;11.10;99.90;;;;;;5113573;28;20166;-73
2022/12/26 00:13:54;;;;;;;4.10;2.20;;;11.20;99.90;;;;;;5112396;28;20050;-73
2022/12/26 00:16:20;;;;;;;2.90;2.00;;;11.20;99.90;;;;;;5111549;28;20027;-73
2022/12/26 00:18:46;;;;;;;3.25;1.73;;;11.30;99.90;;;;;;5112061;28;20442;-73
2022/12/26 00:21:14;;;;;;;5.55;1.70;;;11.30;99.90;;;;;;5111938;28;20061;-73
2022/12/26 00:23:40;;;;;;;6.55;2.20;;;11.40;99.90;;;;;;5112262;28;20028;-73
2022/12/26 00:26:09;;;;;;;3.47;1.98;;;11.40;99.90;;;;;;5111429;28;20031;-73
2022/12/26 00:28:35;;;;;;;3.30;1.65;;;11.40;99.90;;;;;;5112154;28;20042;-73
2022/12/26 00:31:06;;;;;;;2.97;1.77;;;11.50;99.90;;;;;;5112237;28;20024;-73
2022/12/26 00:33:36;;;;;;;3.72;2.20;;;11.60;99.90;;;;;;5112085;28;20020;-73
2022/12/26 00:36:12;;;;;;;2.90;1.98;;;11.60;99.90;;;;;;5112091;28;20019;-73
2022/12/26 00:38:39;;;;;;;3.03;1.65;;;11.60;99.90;;;;;;5111973;28;20468;-73
2022/12/26 00:41:05;;;;;;;6.50;1.95;;;11.70;99.90;;;;;;5113121;28;20131;-77
2022/12/26 00:43:31;;;;;;;2.53;1.75;;;11.80;99.90;;;;;;5113226;28;20023;-73
2022/12/26 00:45:57;;;;;;;4.40;2.20;;;11.80;99.90;;;;;;5111648;28;20031;-73
2022/12/26 00:48:23;;;;;;;2.97;1.80;;;11.80;99.90;;;;;;5111446;28;20032;-73
2022/12/26 00:50:49;;;;;;;3.83;1.83;;;11.80;99.90;;;;;;5112953;28;20145;-73
2022/12/26 00:53:15;;;;;;;3.45;1.70;;;11.90;99.90;;;;;;5111288;28;20023;-73
2022/12/26 00:55:40;;;;;;;3.55;1.70;;;11.90;99.90;;;;;;5111868;28;20031;-73
2022/12/26 00:58:06;;;;;;;4.50;1.83;;;11.90;99.90;;;;;;5111331;28;20031;-75
2022/12/26 01:00:32;;;;;;;3.63;1.85;;;11.90;99.90;;;;;;5112807;28;20024;-73
2022/12/26 01:02:57;;;;;;;4.07;1.90;;;12.00;99.90;;;;;;5113012;28;20529;-73
2022/12/26 01:05:23;;;;;;;6.47;2.05;;;12.00;99.90;;;;;;5110915;28;20028;-73
2022/12/26 01:07:48;;;;;;;2.35;1.60;;;12.10;99.90;;;;;;5114438;28;20028;-73
2022/12/26 01:10:14;;;;;;;2.63;1.58;;;12.10;99.90;;;;;;5116896;28;20452;-73
2022/12/26 01:12:40;;;;;;;2.55;1.48;;;12.20;99.90;;;;;;5115951;28;20028;-73
2022/12/26 01:15:06;;;;;;;4.20;1.73;;;12.20;99.90;;;;;;5117124;28;20093;-72
2022/12/26 01:17:32;;;;;;;2.90;1.75;;;12.20;99.90;;;;;;5116773;28;20024;-74
2022/12/26 01:19:58;;;;;;;2.35;1.67;;;12.20;99.90;;;;;;5117035;28;20043;-73
2022/12/26 01:22:24;;;;;;;2.53;1.50;;;12.30;99.90;;;;;;5115193;28;20023;-73
2022/12/26 01:24:57;;;;;;;3.75;1.88;;;12.30;99.90;;;;;;5115350;28;20028;-73
2022/12/26 01:27:24;;;;;;;3.10;1.80;;;12.30;99.90;;;;;;5116379;28;20036;-73
2022/12/26 01:29:51;;;;;;;2.00;1.58;;;12.40;99.90;;;;;;5115504;28;20176;-73
2022/12/26 01:32:17;;;;;;;2.25;1.73;;;12.40;99.90;;;;;;5115028;28;20122;-73
2022/12/26 01:34:43;;;;;;;6.07;1.77;;;12.40;99.90;;;;;;5115437;28;20118;-73
2022/12/26 01:37:12;;;;;;;2.40;1.58;;;12.40;99.90;;;;;;5116103;28;20157;-74
2022/12/26 01:39:37;;;;;;;2.47;1.38;;;12.40;99.90;;;;;;5115187;28;20039;-73
2022/12/26 01:42:16;;;;;;;2.53;1.42;;;12.40;99.90;;;;;;5115305;28;20019;-73
2022/12/26 01:44:59;;;;;;;2.95;1.70;;;12.50;99.90;;;;;;5115299;28;20495;-73
2022/12/26 01:48:07;;;;;;;2.38;1.58;;;12.50;99.90;;;;;;5116060;28;20023;-72
2022/12/26 01:50:36;;;;;;;2.08;1.40;;;12.60;99.90;;;;;;5059284;28;20070;-73
2022/12/26 01:53:25;;;;;;;3.25;1.58;;;12.70;99.90;;;;;;5115110;28;20070;-73
2022/12/26 01:56:22;;;;;;;2.38;1.38;;;12.70;99.90;;;;;;5113908;28;20068;-73
2022/12/26 01:58:56;;;;;;;2.97;1.60;;;12.70;99.90;;;;;;5113821;28;20043;-73
2022/12/26 02:01:26;;;;;;;2.92;1.52;;;12.70;99.90;;;;;;5114510;28;20020;-73
2022/12/26 02:06:37;;;;;;;3.83;1.45;;;12.70;99.90;;;;;;5116139;28;20031;-73
2022/12/26 02:09:02;;;;;;;2.00;1.20;;;12.70;99.90;;;;;;5116121;27;20032;-73
2022/12/26 02:11:39;;;;;;;2.30;1.33;;;12.60;99.90;;;;;;5115589;28;20039;-73
2022/12/26 02:14:06;;;;;;;2.17;1.48;;;12.70;99.90;;;;;;5116030;28;20074;-73
2022/12/26 02:16:35;;;;;;;4.70;1.63;;;12.70;99.90;;;;;;5114199;28;20377;-73
2022/12/26 02:19:01;;;;;;;2.72;1.73;;;12.70;99.90;;;;;;5113086;28;20100;-73
2022/12/26 02:21:45;;;;;;;3.63;1.70;;;12.70;99.90;;;;;;5115341;28;20028;-73
2022/12/26 02:24:35;;;;;;;3.47;1.70;;;12.80;99.90;;;;;;5114314;28;20023;-78
2022/12/26 02:27:09;;;;;;;2.50;1.48;;;12.80;99.90;;;;;;5115669;28;20066;-73
2022/12/26 02:30:32;;;;;;;2.45;1.60;;;12.80;99.90;;;;;;5113978;28;20031;-73
2022/12/26 02:33:04;;;;;;;;;;;12.80;99.90;;;;;;5033055;28;20148;-73
2022/12/26 02:35:50;;;;;;;3.90;1.52;;;12.90;99.90;;;;;;5113868;28;19903;-73
2022/12/26 02:38:45;;;;;;;3.83;1.55;;;12.90;99.90;;;;;;5114030;28;20027;-73
2022/12/26 02:41:42;;;;;;;2.67;1.25;;;12.90;99.90;;;;;;5114910;28;20047;-73
2022/12/26 02:47:28;;;;;;;3.35;1.58;;;13.00;99.90;;;;;;5115491;28;20034;-73
2022/12/26 03:13:15;;;;;;;2.60;1.42;;;13.10;99.90;;;;;;5114989;28;20039;-73
2022/12/26 03:18:41;;;;;;;3.22;1.85;;;13.00;99.90;;;;;;5114166;28;20147;-73
2022/12/26 03:21:08;;;;;;;3.65;1.70;;;13.10;99.90;;;;;;5113408;28;20026;-73
2022/12/26 03:23:36;;;;;;;3.35;1.60;;;13.10;99.90;;;;;;5112968;28;20578;-72
2022/12/26 03:30:47;;;;;;;2.25;1.42;;;13.00;99.90;;;;;;5114801;28;20089;-73
2022/12/26 03:31:40;;;;;;;3.67;1.40;;;13.00;99.90;;;;;;5113941;28;20024;-73
2022/12/26 03:34:15;;;;;;;2.50;1.75;;;13.00;99.90;;;;;;5112949;28;20122;-73
2022/12/26 03:37:15;;;;;;;2.20;1.50;;;13.00;99.90;;;;;;5113165;28;20490;-73
2022/12/26 04:19:26;;;;;;;5.03;1.70;;;12.90;99.90;;;;;;5109193;28;20123;-73
2022/12/26 04:45:03;;;;;;;2.28;1.80;;;13.00;99.90;;;;;;5113413;28;20035;-73
2022/12/26 04:47:30;;;;;;;2.25;1.30;;;13.10;99.90;;;;;;5112727;28;20026;-73
2022/12/26 04:50:11;;;;;;;1.90;1.40;;;13.10;99.90;;;;;;5113281;28;20034;-73
2022/12/26 04:55:22;;;;;;;3.10;1.50;;;13.10;99.90;;;;;;5112697;28;20039;-74
2022/12/26 04:57:48;;;;;;;2.08;1.33;;;13.20;99.90;;;;;;5112073;28;20389;-73
2022/12/26 05:00:14;;;;;;;3.38;1.38;;;13.20;99.90;;;;;;5111809;28;20468;-73
2022/12/26 05:11:24;;;;;;;1.73;1.20;;;13.10;99.90;;;;;;5112303;28;20069;-73
2022/12/26 05:13:54;;;;;;;3.45;1.40;;;13.10;99.90;;;;;;5111948;28;20024;-73
2022/12/26 05:30:06;;;;;;;3.28;1.63;;;12.70;99.90;;;;;;5112851;28;20404;-73
2022/12/26 05:35:16;;;;;;;2.83;1.65;;;12.60;99.90;;;;;;5112606;28;20034;-73
2022/12/26 05:37:42;;;;;;;3.10;1.88;;;12.70;99.90;;;;;;5112373;28;20201;-73
2022/12/26 05:40:08;;;;;;;2.42;1.45;;;12.60;99.90;;;;;;5111350;28;20115;-73
2022/12/26 05:42:34;;;;;;;3.25;1.30;;;12.60;99.90;;;;;;5112225;28;20019;-73
2022/12/26 05:44:59;;;;;;;1.52;1.13;;;12.60;99.90;;;;;;5111537;28;20073;-73
2022/12/26 05:47:25;;;;;;;2.25;1.50;;;12.60;99.90;;;;;;5112363;28;20038;-73
2022/12/26 05:49:51;;;;;;;2.70;1.90;;;12.50;99.90;;;;;;5112968;28;20023;-73
2022/12/26 05:52:16;;;;;;;2.00;1.40;;;12.50;99.90;;;;;;5112672;28;20425;-73
2022/12/26 05:54:42;;;;;;;3.95;1.75;;;12.50;99.90;;;;;;5113586;28;20118;-73
2022/12/26 05:57:07;;;;;;;1.70;1.30;;;12.50;99.90;;;;;;5115185;28;20066;-73
2022/12/26 05:59:33;;;;;;;2.67;1.80;;;12.40;99.90;;;;;;5114476;28;20067;-73
2022/12/26 06:01:59;;;;;;;2.42;1.50;;;12.50;99.90;;;;;;5115861;28;20072;-73
2022/12/26 06:04:25;;;;;;;2.70;1.60;;;12.50;99.90;;;;;;5114548;28;20034;-75
2022/12/26 06:06:55;;;;;;;2.00;1.52;;;12.50;99.90;;;;;;5116249;28;20081;-73
2022/12/26 06:09:24;;;;;;;3.83;1.75;;;12.50;99.90;;;;;;5114758;28;20024;-73
2022/12/26 06:11:49;;;;;;;4.68;1.85;;;12.60;99.90;;;;;;5114774;28;20127;-73
2022/12/26 06:14:15;;;;;;;2.72;1.70;;;12.60;99.90;;;;;;5114774;28;20114;-73
2022/12/26 06:16:41;;;;;;;3.17;1.60;;;12.60;99.90;;;;;;5114469;28;20031;-73
2022/12/26 06:19:07;;;;;;;3.00;1.70;;;12.70;99.90;;;;;;5114285;28;20485;-73
2022/12/26 06:21:32;;;;;;;3.38;1.70;;;12.70;99.90;;;;;;5114024;28;20123;-73
2022/12/26 06:23:58;;;;;;;3.42;1.73;;;12.70;99.90;;;;;;5115796;28;20488;-73
2022/12/26 06:26:24;;;;;;;3.30;1.45;;;12.70;99.90;;;;;;5114053;28;20028;-73
2022/12/26 06:28:50;;;;;;;2.38;1.60;;;12.70;99.90;;;;;;5115170;28;20377;-73
2022/12/26 06:31:22;;;;;;;3.25;1.77;;;12.70;99.90;;;;;;5114488;28;20027;-73
2022/12/26 06:33:50;;;;;;;3.97;1.63;;;12.70;99.90;;;;;;5115203;27;20437;-73
2022/12/26 06:36:20;;;;;;;6.28;1.92;;;12.70;99.90;;;;;;5114414;28;20380;-73
2022/12/26 06:38:46;;;;;;;3.70;1.92;;;12.70;99.90;;;;;;5113674;28;20626;-73
2022/12/26 06:41:17;;;;;;;2.65;1.70;;;12.70;99.90;;;;;;5115771;28;20078;-73
2022/12/26 06:43:43;;;;;;;2.70;1.42;;;12.70;99.90;;;;;;5113633;28;20023;-73
2022/12/26 06:46:12;;;;;;;5.32;1.70;;;12.60;99.90;;;;;;5115355;28;20039;-72
2022/12/26 06:48:38;;;;;;;2.63;1.73;;;12.50;99.90;;;;;;5113595;28;20461;-73
2022/12/26 06:51:13;;;;;;;3.85;1.67;;;12.40;99.90;;;;;;5115411;28;20072;-73
2022/12/26 06:53:39;;;;;;;2.17;1.77;;;12.30;99.90;;;;;;5113493;28;20030;-73
2022/12/26 06:56:12;;;;;;;3.38;1.75;;;12.30;99.90;;;;;;5115402;28;20032;-73
2022/12/26 06:58:38;;;;;;;4.18;2.00;;;12.20;99.90;;;;;;5113328;28;20031;-73
2022/12/26 07:01:09;;;;;;;3.90;1.95;;;12.20;99.90;;;;;;5113905;28;20031;-74
2022/12/26 07:03:35;;;;;;;3.13;1.75;;;12.20;99.90;;;;;;5113578;28;20030;-73
2022/12/26 07:06:05;;;;;;;2.97;1.70;;;12.10;99.90;;;;;;5113089;28;20385;-73
2022/12/26 07:08:32;;;;;;;5.18;2.20;;;12.10;99.90;;;;;;5113372;28;20035;-73
2022/12/26 07:10:57;;;;;;;2.60;2.05;;;12.10;99.90;;;;;;5113819;28;20489;-73
2022/12/26 07:13:23;;;;;;;3.58;2.00;;;12.10;99.90;;;;;;5113729;28;20067;-73
2022/12/26 07:15:49;;;;;;;6.78;2.03;;;12.00;99.90;;;;;;5113032;28;20097;-73
2022/12/26 07:18:14;;;;;;;4.00;1.85;;;12.00;99.90;;;;;;5113076;28;20047;-73
2022/12/26 07:20:40;;;;;;;2.58;1.60;;;12.00;99.90;;;;;;5113091;28;20023;-73
2022/12/26 07:23:05;;;;;;;3.78;1.90;;;12.00;99.90;;;;;;5114712;28;20041;-73
2022/12/26 07:25:31;;;;;;;3.75;1.83;;;11.90;99.90;;;;;;5112753;28;20110;-73
2022/12/26 07:27:57;;;;;;;3.65;1.92;;;11.90;99.90;;;;;;5113276;28;20016;-73
2022/12/26 07:30:22;;;;;;;3.92;2.10;;;12.00;99.90;;;;;;5114464;28;20474;-73
2022/12/26 07:32:48;;;;;;;3.10;1.73;;;12.00;99.90;;;;;;5112658;28;20457;-73
2022/12/26 07:35:13;;;;;;;3.88;2.10;;;12.00;99.90;;;;;;5114140;28;20098;-73
2022/12/26 07:37:39;;;;;;;4.10;1.95;;;12.00;99.90;;;;;;5112539;28;20024;-73
2022/12/26 07:40:05;;;;;;;3.15;2.22;;;11.90;99.90;;;;;;5112942;28;20035;-73
2022/12/26 07:42:31;;;;;;;3.60;1.73;;;12.00;99.90;;;;;;5112627;28;20036;-74
2022/12/26 07:44:56;;;;;;;3.60;2.03;;;12.00;99.90;;;;;;5113027;28;20077;-73
2022/12/26 07:47:22;;;;;;;3.42;2.00;;;11.90;99.90;;;;;;5112943;28;20042;-73
2022/12/26 07:49:47;;;;;;;5.63;2.67;;;11.90;99.90;;;;;;5112329;28;20027;-73
2022/12/26 07:52:13;;;;;;;4.20;2.63;;;11.80;99.90;;;;;;5112736;28;20027;-73
2022/12/26 07:54:39;;;;;;;4.57;2.70;;;11.80;99.90;;;;;;5112139;28;20118;-73
2022/12/26 07:57:04;;;;;;;6.38;2.70;;;11.80;99.90;;;;;;5112768;28;20416;-73
2022/12/26 07:59:30;;;;;;;5.80;2.58;;;11.80;99.90;;;;;;5113877;28;20031;-73
2022/12/26 08:01:57;;;;;;;3.25;1.92;;;11.70;99.90;;;;;;5112664;28;20070;-74
2022/12/26 08:04:22;;;;;;;5.70;2.50;;;11.70;99.90;;;;;;5112672;28;20088;-73
2022/12/26 08:06:48;;;;;;;3.92;2.05;;;11.70;99.90;;;;;;5112043;28;20464;-73
2022/12/26 08:09:14;;;;;;;3.97;2.17;;;11.70;99.90;;;;;;5112161;28;20059;-73
2022/12/26 08:11:41;;;;;;;3.58;2.05;;;11.70;99.90;;;;;;5113482;28;20027;-73
2022/12/26 08:14:09;;;;;;;3.53;1.83;;;11.70;99.90;;;;;;5112440;28;20111;-73
2022/12/26 08:16:34;;;;;;;4.35;1.90;;;11.70;99.90;;;;;;5112078;28;20031;-73
2022/12/26 08:19:02;;;;;;;3.97;2.08;;;11.70;99.90;;;;;;5113461;28;20048;-73
2022/12/26 08:21:28;;;;;;;3.75;2.10;;;11.70;99.90;;;;;;5111928;28;20023;-73
2022/12/26 08:23:53;;;;;;;2.72;1.92;;;11.70;99.90;;;;;;5113068;28;20045;-73
2022/12/26 08:26:21;;;;;;;6.28;2.42;;;11.70;99.90;;;;;;5111823;28;20081;-73
2022/12/26 08:28:47;;;;;;;4.05;2.00;;;11.70;99.90;;;;;;5111610;28;20369;-73
2022/12/26 08:31:13;;;;;;;4.38;2.30;;;11.70;99.90;;;;;;5112227;28;20132;-73
2022/12/26 08:33:38;;;;;;;3.95;2.35;;;11.70;99.90;;;;;;5111585;28;20023;-73
2022/12/26 08:36:07;;;;;;;4.65;2.33;;;11.70;99.90;;;;;;5112172;28;20024;-72
2022/12/26 08:38:33;;;;;;;5.70;2.50;;;11.70;99.90;;;;;;5111794;28;20053;-78
2022/12/26 08:40:58;;;;;;;5.80;2.50;;;11.70;99.90;;;;;;5112176;28;20023;-73
2022/12/26 08:43:24;;;;;;;3.63;2.47;;;11.70;99.90;;;;;;5112866;28;20073;-73
2022/12/26 08:46:05;;;;;;;4.82;2.38;;;11.70;99.90;;;;;;5112474;28;20024;-73
2022/12/26 08:48:31;;;;;;;4.15;2.45;;;11.70;99.90;;;;;;5113329;28;20027;-73
2022/12/26 08:51:12;;;;;;;3.35;2.10;;;11.60;99.90;;;;;;5111415;28;20358;-73
2022/12/26 08:53:38;;;;;;;6.27;2.40;;;11.60;99.90;;;;;;5111510;28;20062;-73
2022/12/26 08:56:06;;;;;;;4.38;2.05;;;11.60;99.90;;;;;;5111551;28;20307;-73
2022/12/26 08:58:32;;;;;;;5.25;2.40;;;11.60;99.90;;;;;;5113356;28;20469;-72
2022/12/26 09:01:09;;;;;;;4.95;2.40;;;11.60;99.90;;;;;;5111654;28;20028;-73
2022/12/26 09:03:35;;;;;;;3.38;2.10;;;11.60;99.90;;;;;;5111642;28;20396;-74
2022/12/26 09:06:01;;;;;;;4.10;1.90;;;11.60;99.90;;;;;;5111986;28;20030;-73
2022/12/26 09:08:29;;;;;;;3.78;2.22;;;11.60;99.90;;;;;;5111878;28;20024;-73
2022/12/26 09:10:56;;;;;;;3.03;1.90;;;11.60;99.90;;;;;;5111260;28;20239;-73
2022/12/26 09:13:22;;;;;;;2.83;1.70;;;11.60;99.90;;;;;;5111665;28;20031;-73
2022/12/26 09:15:47;;;;;;;4.82;2.28;;;11.60;99.90;;;;;;5112448;28;20019;-73
2022/12/26 09:18:13;;;;;;;5.78;2.65;;;11.60;99.90;;;;;;5112691;28;20040;-73
2022/12/26 09:20:38;;;;;;;4.07;2.20;;;11.50;99.90;;;;;;5112355;28;20028;-73
2022/12/26 09:23:06;;;;;;;3.28;1.80;;;11.50;99.90;;;;;;5112189;28;20381;-73
2022/12/26 09:25:31;;;;;;;2.55;1.90;;;11.50;99.90;;;;;;5111601;28;20032;-73
2022/12/26 09:27:57;;;;;;;2.95;2.20;;;11.50;99.90;;;;;;5111133;28;20034;-73
2022/12/26 09:30:22;;;;;;;2.35;1.60;;;11.40;99.90;;;;;;5115545;28;20486;-73
2022/12/26 09:32:48;;;;;;;2.38;1.70;;;11.50;99.90;;;;;;5115000;28;20035;-73
2022/12/26 09:35:13;;;;;;;4.43;1.90;;;11.50;99.90;;;;;;5116414;28;20029;-73
2022/12/26 09:37:39;;;;;;;2.35;1.88;;;11.50;99.90;;;;;;5116160;28;20353;-73
2022/12/26 09:40:09;;;;;;;2.35;1.70;;;11.50;99.90;;;;;;5115298;28;20082;-73
2022/12/26 09:42:46;;;;;;;4.50;1.70;;;11.40;99.90;;;;;;5115439;28;20118;-73
2022/12/26 09:45:15;;;;;;;3.60;2.38;;;11.40;99.90;;;;;;5116316;28;20472;-73
2022/12/26 09:48:05;;;;;;;2.42;1.60;;;11.40;99.90;;;;;;5115781;28;20028;-73
2022/12/26 09:50:34;;;;;;;7.55;3.08;;;11.40;99.90;;;;;;5115214;28;20020;-73
2022/12/26 09:53:10;;;;;;;2.97;1.90;;;11.40;99.90;;;;;;5114669;28;20028;-73
2022/12/26 09:55:38;;;;;;;3.33;1.30;;;11.40;99.90;;;;;;5116593;28;20116;-73
2022/12/26 09:58:30;;;;;;;3.60;2.00;;;11.30;99.90;;;;;;5114962;28;20027;-73
2022/12/26 10:01:09;;;;;;;2.97;1.95;;;11.30;99.90;;;;;;5114445;28;20496;-72
2022/12/26 10:03:41;;;;;;;2.42;1.75;;;11.40;99.90;;;;;;5114950;28;20035;-72
2022/12/26 10:06:12;;;;;;;4.00;2.03;;;11.40;99.90;;;;;;5114405;28;20145;-72
2022/12/26 10:09:09;;;;;;;4.22;1.60;;;11.40;99.90;;;;;;5114659;28;20066;-77
2022/12/26 10:12:05;;;;;;;2.90;1.83;;;11.40;99.90;;;;;;5114807;28;20442;-73
2022/12/26 10:14:43;;;;;;;3.33;1.80;;;11.40;99.90;;;;;;5114870;28;20023;-73
2022/12/26 10:17:31;;;;;;;4.57;2.20;;;11.40;99.90;;;;;;5114657;28;20035;-73
2022/12/26 10:20:21;;;;;;;4.20;2.25;;;11.40;99.90;;;;;;5115043;28;20039;-73
2022/12/26 10:23:17;;;;;;;4.60;2.30;;;11.40;99.90;;;;;;5114246;28;20023;-73
2022/12/26 10:25:47;;;;;;;4.18;2.72;;;11.40;99.90;;;;;;5113853;28;20032;-73
2022/12/26 10:28:23;;;;;;;4.57;2.40;;;11.50;99.90;;;;;;5115734;28;20028;-73
2022/12/26 10:30:51;;;;;;;4.53;2.80;;;11.50;99.90;;;;;;5115167;28;20103;-74
2022/12/26 10:33:26;;;;;;;4.38;2.50;;;11.50;99.90;;;;;;5115633;28;20054;-73
2022/12/26 10:35:51;;;;;;;4.78;2.53;;;11.50;99.90;;;;;;5114961;28;20381;-73
2022/12/26 10:38:33;;;;;;;4.63;2.42;;;11.60;99.90;;;;;;5114198;28;20492;-73
2022/12/26 10:41:23;;;;;;;4.72;2.65;;;11.60;99.90;;;;;;5113931;28;20059;-73
2022/12/26 10:43:48;;;;;;;4.50;2.60;;;11.50;99.90;;;;;;5113759;28;20034;-73
2022/12/26 10:46:23;;;;;;;4.63;2.70;;;11.60;99.90;;;;;;5115331;28;20098;-74
2022/12/26 10:48:49;;;;;;;5.30;2.80;;;11.60;99.90;;;;;;5113647;28;20168;-73
2022/12/26 10:51:15;;;;;;;4.20;2.75;;;11.60;99.90;;;;;;5115104;28;20051;-73
2022/12/26 10:53:49;;;;;;;3.95;2.47;;;11.60;99.90;;;;;;5113830;28;20026;-78
2022/12/26 10:56:16;;;;;;;4.90;2.83;;;11.60;99.90;;;;;;5114016;28;20035;-73
2022/12/26 10:58:43;;;;;;;4.47;2.60;;;11.60;99.90;;;;;;5114215;28;20031;-79
2022/12/26 11:01:27;;;;;;;6.05;3.10;;;11.60;99.90;;;;;;5115056;28;20039;-74
2022/12/26 11:03:58;;;;;;;5.78;2.47;;;11.60;99.90;;;;;;5114285;28;20024;-74
2022/12/26 11:06:35;;;;;;;7.13;3.85;;;11.60;99.90;;;;;;5113700;28;20028;-74
2022/12/26 11:09:01;;;;;;;7.43;3.08;;;11.60;99.90;;;;;;5114257;28;20020;-74
2022/12/26 11:11:47;;;;;;;5.05;3.10;;;11.60;99.90;;;;;;5114865;28;20026;-74
2022/12/26 11:14:38;;;;;;;6.53;2.65;;;11.60;99.90;;;;;;5113762;28;20024;-73
2022/12/26 11:17:12;;;;;;;4.28;2.50;;;11.60;99.90;;;;;;5114383;28;20091;-73
2022/12/26 11:19:43;;;;;;;4.78;2.63;;;11.60;99.90;;;;;;5112929;28;20411;-73
2022/12/26 11:22:23;;;;;;;3.43;2.37;;;11.60;99.90;;;;;;5113461;28;20479;-73
2022/12/26 11:25:11;;;;;;;6.88;2.65;;;11.60;99.90;;;;;;5112852;28;20031;-73
2022/12/26 11:27:46;;;;;;;5.20;2.20;;;11.60;99.90;;;;;;5113468;28;20023;-73
2022/12/26 11:30:25;;;;;;;4.97;2.55;;;11.60;99.90;;;;;;5113387;28;20165;-73
2022/12/26 11:33:22;;;;;;;4.78;2.30;;;11.60;99.90;;;;;;5112830;28;20051;-73
2022/12/26 11:36:04;;;;;;;3.72;2.00;;;11.60;99.90;;;;;;5114072;28;20035;-73
2022/12/26 11:38:35;;;;;;;2.88;2.00;;;11.60;99.90;;;;;;5113993;28;20020;-73
2022/12/26 11:41:34;;;;;;;4.72;1.90;;;11.60;99.90;;;;;;5114145;28;20103;-73
2022/12/26 11:44:09;;;;;;;2.50;1.67;;;11.60;99.90;;;;;;5112546;28;20085;-73
2022/12/26 11:46:55;;;;;;;2.38;1.73;;;11.70;99.90;;;;;;5113120;28;20028;-73
2022/12/26 11:49:33;;;;;;;3.08;1.50;;;11.70;99.90;;;;;;5114281;28;20089;-73
2022/12/26 11:52:02;;;;;;;2.75;1.38;;;11.70;99.90;;;;;;5112080;28;20081;-73
2022/12/26 11:54:35;;;;;;;2.72;1.67;;;11.70;99.90;;;;;;5112532;28;20503;-73
2022/12/26 11:57:06;;;;;;;3.00;1.52;;;11.60;99.90;;;;;;5112245;28;20023;-73
2022/12/26 11:59:32;;;;;;;1.42;1.10;;;11.70;99.90;;;;;;5112619;28;20031;-73
2022/12/26 12:02:22;;;;;;;1.98;1.20;;;11.70;99.90;;;;;;5112112;28;20041;-73
2022/12/26 12:04:50;;;;;;;2.10;1.50;;;11.70;99.90;;;;;;5112104;28;20046;-74
2022/12/26 12:07:22;;;;;;;1.38;1.00;;;11.80;99.90;;;;;;5112125;28;20038;-73
2022/12/26 12:10:02;;;;;;;1.75;1.08;;;11.80;99.90;;;;;;5112083;28;20426;-73
2022/12/26 12:12:34;;;;;;;1.55;1.10;;;11.80;99.90;;;;;;5112131;28;20043;-73
2022/12/26 12:15:11;;;;;;;1.80;0.98;;;11.80;99.90;;;;;;5112006;28;20027;-73
2022/12/26 12:17:58;;;;;;;1.83;0.80;;;11.80;99.90;;;;;;5112537;28;20032;-73
2022/12/26 12:20:57;;;;;;;0.93;0.80;;;11.80;99.90;;;;;;5112317;28;20042;-72
2022/12/26 12:23:59;;;;;;;1.63;1.10;;;11.80;99.90;;;;;;5113561;28;20479;-72
2022/12/26 12:26:47;;;;;;;1.13;0.80;;;11.80;99.90;;;;;;5111859;28;20131;-73
2022/12/26 12:29:27;;;;;;;2.72;1.05;;;11.90;99.90;;;;;;5113466;28;20031;-72
2022/12/26 12:32:12;;;;;;;1.70;0.77;;;11.90;99.90;;;;;;5112929;28;20484;-73
2022/12/26 12:35:04;;;;;;;1.58;0.75;;;11.90;99.90;;;;;;5112114;28;20063;-72
2022/12/26 12:38:05;;;;;;;1.02;0.80;;;11.90;99.90;;;;;;5112177;28;20015;-72
2022/12/26 12:40:56;;;;;;;0.90;0.65;;;11.80;99.90;;;;;;5113410;28;20043;-75
2022/12/26 12:43:40;;;;;;;0.93;0.70;;;11.80;99.90;;;;;;5112202;28;20035;-75
2022/12/26 12:46:24;;;;;;;0.90;0.70;;;11.70;99.90;;;;;;5111559;28;20020;-75
2022/12/26 12:48:53;;;;;;;0.88;0.80;;;11.70;99.90;;;;;;5111475;28;20042;-74
2022/12/26 12:51:40;;;;;;;1.27;0.60;;;11.60;99.90;;;;;;5111657;28;20027;-75
2022/12/26 12:54:26;;;;;;;1.23;0.95;;;11.60;99.90;;;;;;5111270;28;20027;-75
2022/12/26 12:57:14;;;;;;;0.98;0.77;;;11.50;99.90;;;;;;5112662;28;20062;-75
2022/12/26 13:00:03;;;;;;;1.15;0.70;;;11.50;99.90;;;;;;5111951;28;20038;-72
2022/12/26 13:02:52;;;;;;;2.05;1.38;;;11.50;99.90;;;;;;5112190;28;20036;-72
2022/12/26 13:05:55;;;;;;;1.95;1.30;;;11.60;99.90;;;;;;5115790;28;20028;-72
2022/12/26 13:08:46;;;;;;;2.80;1.48;;;11.60;99.90;;;;;;5116194;28;20377;-72
2022/12/26 13:11:30;;;;;;;4.28;2.00;;;11.60;99.90;;;;;;5115407;28;20491;-72
2022/12/26 13:14:01;;;;;;;4.05;1.60;;;11.60;99.90;;;;;;5115415;28;20480;-72
2022/12/26 13:16:32;;;;;;;3.40;1.58;;;11.60;99.90;;;;;;5116136;28;20020;-72
2022/12/26 13:19:04;;;;;;;4.03;2.50;;;11.60;99.90;;;;;;5116450;28;20047;-75
2022/12/26 13:21:35;;;;;;;4.70;2.45;;;11.60;99.90;;;;;;5116248;28;20028;-72
2022/12/26 13:24:24;;;;;;;3.25;2.17;;;11.60;99.90;;;;;;5115393;28;20031;-73
2022/12/26 13:27:13;;;;;;;5.22;2.63;;;11.60;99.90;;;;;;5114983;28;20032;-80
2022/12/26 13:29:42;;;;;;;5.93;3.25;;;11.60;99.90;;;;;;5114785;28;20481;-72
2022/12/26 13:32:40;;;;;;;6.50;3.47;;;11.50;99.90;;;;;;5116398;28;20023;-75
2022/12/26 13:35:26;;;;;;;4.32;2.70;;;11.50;99.90;;;;;;5070700;28;20567;-75
2022/12/26 13:37:55;;;;;;;10.10;4.55;;;11.50;99.90;;;;;;5114860;28;20028;-76
2022/12/26 13:40:28;;;;;;;5.60;2.70;;;11.40;99.90;;;;;;5115312;28;20031;-75
2022/12/26 13:46:00;;;;;;;7.38;3.65;;;11.40;99.90;;;;;;5115821;28;20062;-72
2022/12/26 13:48:26;;;;;;;6.10;3.70;;;11.40;99.90;;;;;;5115233;28;20032;-73
2022/12/26 13:50:58;;;;;;;9.48;4.20;;;11.40;99.90;;;;;;5114532;28;20033;-78
2022/12/26 13:53:24;;;;;;;6.15;3.78;;;11.40;99.90;;;;;;5115137;28;20056;-73
2022/12/26 13:55:54;;;;;;;26.75;13.32;;;11.40;99.90;;;;;;5114818;28;20066;-72
2022/12/26 13:58:25;;;;;;;18.80;8.73;;;11.40;99.90;;;;;;5114904;28;20027;-72
2022/12/26 14:00:58;;;;;;;8.48;5.10;;;11.50;99.90;;;;;;5116684;28;20081;-73
2022/12/26 14:03:44;;;;;;;4.35;2.30;;;11.50;99.90;;;;;;5115285;28;20039;-72
2022/12/26 14:06:35;;;;;;;3.05;1.80;;;11.40;99.90;;;;;;5114347;28;20028;-73
2022/12/26 14:09:10;;;;;;;6.22;2.90;;;11.40;99.90;;;;;;5115761;28;20032;-73
2022/12/26 14:12:14;;;;;;;5.38;2.35;;;11.40;99.90;;;;;;5114743;28;20446;-72
2022/12/26 14:15:06;;;;;;;12.80;6.45;;;11.40;99.90;;;;;;5084186;28;20035;-73
2022/12/26 14:17:39;;;;;;;9.43;4.45;;;11.50;99.90;;;;;;5114785;28;20138;-73
2022/12/26 14:20:28;;;;;;;4.40;2.47;;;11.50;99.90;;;;;;5113504;28;20058;-73
2022/12/26 14:23:26;;;;;;;4.25;2.00;;;11.50;99.90;;;;;;5115126;28;20389;-75
2022/12/26 14:26:09;;;;;;;3.05;1.55;;;11.50;99.90;;;;;;5079908;28;20173;-73
2022/12/26 14:29:08;;;;;;;2.03;1.20;;;11.50;99.90;;;;;;5114557;28;20073;-73
2022/12/26 14:31:47;;;;;;;1.52;1.10;;;11.40;99.90;;;;;;5114606;28;20091;-73
2022/12/26 14:34:45;;;;;;;1.58;1.30;;;11.40;99.90;;;;;;5114046;28;20023;-73
2022/12/26 14:37:41;;;;;;;2.10;1.35;;;11.40;99.90;;;;;;5075093;28;20036;-73
2022/12/26 14:40:29;;;;;;;3.15;1.48;;;11.30;99.90;;;;;;5113755;28;20027;-73
2022/12/26 14:43:15;;;;;;;3.65;1.60;;;11.30;99.90;;;;;;5113838;28;20443;-75
2022/12/26 14:45:49;;;;;;;1.88;1.30;;;11.30;99.90;;;;;;5096609;28;20465;-73
2022/12/26 14:48:15;;;;;;;2.13;1.23;;;11.20;99.90;;;;;;5113597;28;20032;-73
2022/12/26 14:50:43;;;;;;;2.03;1.40;;;11.20;99.90;;;;;;5113958;28;20038;-73
2022/12/26 14:53:27;;;;;;;1.75;0.80;;;11.20;99.90;;;;;;5113483;28;20028;-73
2022/12/26 14:56:12;;;;;;;1.70;1.00;;;11.20;99.90;;;;;;5113826;28;20060;-73
2022/12/26 14:58:41;;;;;;;1.00;0.80;;;11.20;99.90;;;;;;5113984;28;20023;-73
2022/12/26 15:01:14;;;;;;;1.55;0.80;;;11.20;99.90;;;;;;5113385;28;20084;-73
2022/12/26 15:04:00;;;;;;;1.55;1.10;;;11.20;99.90;;;;;;5115137;28;20475;-73
2022/12/26 15:07:01;;;;;;;1.88;1.20;;;11.20;99.90;;;;;;5113576;28;20128;-73
2022/12/26 15:09:51;;;;;;;0.90;0.70;;;11.20;99.90;;;;;;5108268;28;20043;-73
2022/12/26 15:12:31;;;;;;;1.00;0.70;;;11.20;99.90;;;;;;5113171;28;20085;-73
2022/12/26 15:15:06;;;;;;;1.73;0.60;;;11.20;99.90;;;;;;5113269;28;20024;-73
2022/12/26 15:17:50;;;;;;;1.33;0.60;;;11.20;99.90;;;;;;5114949;28;20543;-73
2022/12/26 15:20:52;;;;;;;1.27;0.55;;;11.20;99.90;;;;;;5113024;28;20709;-73
2022/12/26 15:23:27;;;;;;;0.85;0.60;;;11.10;99.90;;;;;;5112971;28;20027;-73
2022/12/26 15:26:22;;;;;;;1.35;0.93;;;11.20;99.90;;;;;;5114407;28;20039;-72
2022/12/26 15:29:06;;;;;;;5.88;2.33;;;11.20;99.90;;;;;;5113326;28;20030;-73
2022/12/26 15:32:07;;;;;;;2.38;1.40;;;11.10;99.90;;;;;;5113448;28;20026;-73